2022年7月1日 7:00 下午2022年7月2日 7:00 上午有效
时间
星期五
7:00 下午
星期五
8:00 下午
星期五
9:00 下午
星期五
10:00 下午
星期五
11:00 下午
星期六
12:00 上午
星期六
1:00 上午
星期六
2:00 上午
星期六
3:00 上午
星期六
4:00 上午
星期六
5:00 上午
星期六
6:00 上午
代码
LIFR
LIFR
LIFR
LIFR
LIFR
LIFR
LIFR
LIFR
LIFR
LIFR
LIFR
LIFR
天气
天空晴朗
天空晴朗
天空晴朗
天空晴朗
天空晴朗
天空晴朗
天空晴朗
天空晴朗
天空晴朗
天空晴朗
天空晴朗
天空晴朗
能见度
0 mi
0 mi
0 mi
0 mi
0 mi
0 mi
0 mi
0 mi
0 mi
0 mi
0 mi
0 mi
天花板
-
-
-
-
-
-
-
-
-
-
-
-
240°
240°
240°
240°
190°
190°
190°
190°
190°
190°
190°
190°
190°
190°
190°
190°
190°
190°
190°
190°
190°
190°
190°
190°
速度
12 kt
12 kt
12 kt
12 kt
6 kt
6 kt
6 kt
6 kt
6 kt
6 kt
6 kt
6 kt
阵风
温度/星期日
10:07 下午

原版的

TAF EHLW 011605Z 0117/0205 24012KT SCT035
BECMG 0119/0121 19006KT

TAF Vlieland Heliport

Vlieland Heliport是Vlieland,荷兰中的直升机场。 视场标高为37 ft。

这份报告是针对2022年7月1日 6:05 下午, 当地时间在Leeuwarden Air Base进行的。 从2022年7月1日 7:00 下午到2022年7月2日 7:00 上午, 当地时间有效.

预报

  • 从星期五 7:00 下午到星期六 7:00 上午

    • 风: 风来自240°方向,速度为12 kt。
    • 乌云: 疏云,零星散落的云朵在3.500 ft的高度.

  • 介于星期五 9:00 下午和11:00 下午之间

    • 风: 风来自190°方向,速度为6 kt。

白天

今天,太阳从5:16 上午升起,在10:10 下午降落。 这适用于Vlieland Heliport,世界夏令时可能有所不同。 当地时间与世界标准时间之间的时差为+2 小时。 夏令时目前正在进行中。

下载我们的应用程序

在您的手机和平板电脑上轻松访问所有航空天气。
有许多网站上没有的功能,如离线支持和个人机场列表。

Studio Eveline

Benalmádena
España

我们和第三方通过cookies跟踪您在我们网站上的上网行为。如果您继续,我们认为您同意我们的cookie政策。 了解更多